sensor_id;sensor_type;location;lat;lon;timestamp;P1;durP1;ratioP1;P2;durP2;ratioP2
4089;SDS011;2059;48.538;12.146;2023-05-10T00:00:36;6.07;;;5.77;;
4089;SDS011;2059;48.538;12.146;2023-05-10T00:05:39;5.70;;;5.40;;
4089;SDS011;2059;48.538;12.146;2023-05-10T00:10:41;5.63;;;5.30;;
4089;SDS011;2059;48.538;12.146;2023-05-10T00:15:43;7.90;;;5.10;;
4089;SDS011;2059;48.538;12.146;2023-05-10T00:20:46;5.93;;;5.63;;
4089;SDS011;2059;48.538;12.146;2023-05-10T00:25:48;4.90;;;4.60;;
4089;SDS011;2059;48.538;12.146;2023-05-10T00:30:50;4.70;;;4.50;;
4089;SDS011;2059;48.538;12.146;2023-05-10T00:35:53;5.33;;;5.03;;
4089;SDS011;2059;48.538;12.146;2023-05-10T00:40:55;4.90;;;4.70;;
4089;SDS011;2059;48.538;12.146;2023-05-10T00:45:57;5.37;;;5.07;;
4089;SDS011;2059;48.538;12.146;2023-05-10T00:51:00;4.90;;;4.70;;
4089;SDS011;2059;48.538;12.146;2023-05-10T00:56:02;4.50;;;4.40;;
4089;SDS011;2059;48.538;12.146;2023-05-10T01:01:04;4.73;;;4.50;;
4089;SDS011;2059;48.538;12.146;2023-05-10T01:06:08;4.30;;;4.10;;
4089;SDS011;2059;48.538;12.146;2023-05-10T01:11:11;4.40;;;4.10;;
4089;SDS011;2059;48.538;12.146;2023-05-10T01:16:13;3.40;;;3.30;;
4089;SDS011;2059;48.538;12.146;2023-05-10T01:21:17;2.87;;;2.77;;
4089;SDS011;2059;48.538;12.146;2023-05-10T01:26:29;2.60;;;2.50;;
4089;SDS011;2059;48.538;12.146;2023-05-10T01:37:18;3.03;;;2.93;;
4089;SDS011;2059;48.538;12.146;2023-05-10T01:42:23;2.00;;;2.00;;
4089;SDS011;2059;48.538;12.146;2023-05-10T01:47:34;2.00;;;2.00;;
4089;SDS011;2059;48.538;12.146;2023-05-10T01:52:41;1.83;;;1.83;;
4089;SDS011;2059;48.538;12.146;2023-05-10T01:57:44;1.90;;;1.90;;
4089;SDS011;2059;48.538;12.146;2023-05-10T02:02:50;1.80;;;1.80;;
4089;SDS011;2059;48.538;12.146;2023-05-10T02:07:53;1.90;;;1.90;;
4089;SDS011;2059;48.538;12.146;2023-05-10T02:12:56;1.60;;;1.60;;
4089;SDS011;2059;48.538;12.146;2023-05-10T02:18:02;1.67;;;1.67;;
4089;SDS011;2059;48.538;12.146;2023-05-10T02:23:05;1.90;;;1.90;;
4089;SDS011;2059;48.538;12.146;2023-05-10T02:28:08;1.97;;;1.97;;
4089;SDS011;2059;48.538;12.146;2023-05-10T02:33:14;1.93;;;1.83;;
4089;SDS011;2059;48.538;12.146;2023-05-10T02:38:16;2.07;;;1.97;;
4089;SDS011;2059;48.538;12.146;2023-05-10T02:43:21;1.57;;;1.57;;
4089;SDS011;2059;48.538;12.146;2023-05-10T02:48:26;1.77;;;1.67;;
4089;SDS011;2059;48.538;12.146;2023-05-10T02:53:29;1.40;;;1.40;;
4089;SDS011;2059;48.538;12.146;2023-05-10T02:58:33;1.50;;;1.50;;
4089;SDS011;2059;48.538;12.146;2023-05-10T03:03:36;1.70;;;1.60;;
4089;SDS011;2059;48.538;12.146;2023-05-10T03:08:38;1.70;;;1.70;;
4089;SDS011;2059;48.538;12.146;2023-05-10T03:13:43;1.57;;;1.57;;
4089;SDS011;2059;48.538;12.146;2023-05-10T03:18:54;1.30;;;1.30;;
4089;SDS011;2059;48.538;12.146;2023-05-10T03:24:04;1.37;;;1.37;;
4089;SDS011;2059;48.538;12.146;2023-05-10T03:29:09;3.07;;;2.97;;
4089;SDS011;2059;48.538;12.146;2023-05-10T03:34:13;1.60;;;1.50;;
4089;SDS011;2059;48.538;12.146;2023-05-10T03:39:15;1.60;;;1.60;;
4089;SDS011;2059;48.538;12.146;2023-05-10T03:44:17;1.60;;;1.60;;
4089;SDS011;2059;48.538;12.146;2023-05-10T03:49:20;1.70;;;1.70;;
4089;SDS011;2059;48.538;12.146;2023-05-10T03:54:22;1.53;;;1.53;;
4089;SDS011;2059;48.538;12.146;2023-05-10T03:59:23;1.50;;;1.50;;
4089;SDS011;2059;48.538;12.146;2023-05-10T04:04:26;1.40;;;1.40;;
4089;SDS011;2059;48.538;12.146;2023-05-10T04:09:28;1.40;;;1.40;;
4089;SDS011;2059;48.538;12.146;2023-05-10T04:14:30;1.50;;;1.50;;
4089;SDS011;2059;48.538;12.146;2023-05-10T04:19:34;1.30;;;1.30;;
4089;SDS011;2059;48.538;12.146;2023-05-10T04:24:37;1.40;;;1.40;;
4089;SDS011;2059;48.538;12.146;2023-05-10T04:29:46;1.50;;;1.50;;
4089;SDS011;2059;48.538;12.146;2023-05-10T04:34:49;1.27;;;1.27;;
4089;SDS011;2059;48.538;12.146;2023-05-10T04:39:51;1.47;;;1.47;;
4089;SDS011;2059;48.538;12.146;2023-05-10T04:44:56;1.10;;;1.10;;
4089;SDS011;2059;48.538;12.146;2023-05-10T04:49:59;1.40;;;1.40;;
4089;SDS011;2059;48.538;12.146;2023-05-10T04:55:01;1.27;;;1.27;;
4089;SDS011;2059;48.538;12.146;2023-05-10T05:00:04;2.23;;;2.13;;
4089;SDS011;2059;48.538;12.146;2023-05-10T05:05:08;1.63;;;1.53;;
4089;SDS011;2059;48.538;12.146;2023-05-10T05:10:10;1.70;;;1.60;;
4089;SDS011;2059;48.538;12.146;2023-05-10T05:15:12;1.40;;;1.40;;
4089;SDS011;2059;48.538;12.146;2023-05-10T05:20:16;1.30;;;1.30;;
4089;SDS011;2059;48.538;12.146;2023-05-10T05:25:19;1.40;;;1.40;;
4089;SDS011;2059;48.538;12.146;2023-05-10T05:30:20;1.50;;;1.50;;
4089;SDS011;2059;48.538;12.146;2023-05-10T05:35:24;1.50;;;1.50;;
4089;SDS011;2059;48.538;12.146;2023-05-10T05:40:26;1.43;;;1.20;;
4089;SDS011;2059;48.538;12.146;2023-05-10T05:45:27;1.33;;;1.33;;
4089;SDS011;2059;48.538;12.146;2023-05-10T05:50:31;1.40;;;1.40;;
4089;SDS011;2059;48.538;12.146;2023-05-10T05:55:32;1.40;;;1.40;;
4089;SDS011;2059;48.538;12.146;2023-05-10T06:00:34;1.30;;;1.30;;
4089;SDS011;2059;48.538;12.146;2023-05-10T06:05:38;1.50;;;1.50;;
4089;SDS011;2059;48.538;12.146;2023-05-10T06:10:40;1.40;;;1.40;;
4089;SDS011;2059;48.538;12.146;2023-05-10T06:15:41;1.40;;;1.40;;
4089;SDS011;2059;48.538;12.146;2023-05-10T06:20:44;1.40;;;1.40;;
4089;SDS011;2059;48.538;12.146;2023-05-10T06:25:46;1.60;;;1.60;;
4089;SDS011;2059;48.538;12.146;2023-05-10T06:30:48;1.60;;;1.60;;
4089;SDS011;2059;48.538;12.146;2023-05-10T06:35:51;1.63;;;1.63;;
4089;SDS011;2059;48.538;12.146;2023-05-10T06:40:53;1.50;;;1.50;;
4089;SDS011;2059;48.538;12.146;2023-05-10T06:45:55;1.50;;;1.50;;
4089;SDS011;2059;48.538;12.146;2023-05-10T06:50:58;1.50;;;1.50;;
4089;SDS011;2059;48.538;12.146;2023-05-10T06:56:03;1.30;;;1.30;;
4089;SDS011;2059;48.538;12.146;2023-05-10T07:01:13;1.50;;;1.50;;
4089;SDS011;2059;48.538;12.146;2023-05-10T07:06:16;1.77;;;1.73;;
4089;SDS011;2059;48.538;12.146;2023-05-10T07:11:18;1.90;;;1.90;;
4089;SDS011;2059;48.538;12.146;2023-05-10T07:16:20;1.50;;;1.50;;
4089;SDS011;2059;48.538;12.146;2023-05-10T07:21:24;1.60;;;1.60;;
4089;SDS011;2059;48.538;12.146;2023-05-10T07:26:28;1.63;;;1.63;;
4089;SDS011;2059;48.538;12.146;2023-05-10T07:31:30;2.37;;;2.37;;
4089;SDS011;2059;48.538;12.146;2023-05-10T07:36:33;1.73;;;1.73;;
4089;SDS011;2059;48.538;12.146;2023-05-10T07:41:36;1.63;;;1.63;;
4089;SDS011;2059;48.538;12.146;2023-05-10T07:46:38;1.50;;;1.50;;
4089;SDS011;2059;48.538;12.146;2023-05-10T07:51:41;1.83;;;1.73;;
4089;SDS011;2059;48.538;12.146;2023-05-10T07:56:43;1.40;;;1.40;;
4089;SDS011;2059;48.538;12.146;2023-05-10T08:01:47;1.70;;;1.70;;
4089;SDS011;2059;48.538;12.146;2023-05-10T08:06:50;1.60;;;1.60;;
4089;SDS011;2059;48.538;12.146;2023-05-10T08:11:52;1.60;;;1.57;;
4089;SDS011;2059;48.538;12.146;2023-05-10T08:16:53;1.80;;;1.80;;
4089;SDS011;2059;48.538;12.146;2023-05-10T08:21:56;1.70;;;1.70;;
4089;SDS011;2059;48.538;12.146;2023-05-10T08:26:58;1.80;;;1.80;;
4089;SDS011;2059;48.538;12.146;2023-05-10T08:32:00;1.70;;;1.70;;
4089;SDS011;2059;48.538;12.146;2023-05-10T08:37:05;2.30;;;2.30;;
4089;SDS011;2059;48.538;12.146;2023-05-10T08:42:10;2.53;;;2.43;;
4089;SDS011;2059;48.538;12.146;2023-05-10T08:47:17;2.17;;;2.17;;
4089;SDS011;2059;48.538;12.146;2023-05-10T08:52:35;2.80;;;2.70;;
4089;SDS011;2059;48.538;12.146;2023-05-10T08:57:41;2.77;;;2.67;;
4089;SDS011;2059;48.538;12.146;2023-05-10T09:02:43;3.50;;;3.40;;
4089;SDS011;2059;48.538;12.146;2023-05-10T09:07:47;2.67;;;2.67;;
4089;SDS011;2059;48.538;12.146;2023-05-10T09:12:49;2.90;;;2.80;;
4089;SDS011;2059;48.538;12.146;2023-05-10T09:17:51;2.90;;;2.80;;
4089;SDS011;2059;48.538;12.146;2023-05-10T09:22:59;3.00;;;2.90;;
4089;SDS011;2059;48.538;12.146;2023-05-10T09:28:01;3.00;;;2.90;;
4089;SDS011;2059;48.538;12.146;2023-05-10T09:33:03;3.10;;;3.00;;
4089;SDS011;2059;48.538;12.146;2023-05-10T09:38:06;2.73;;;2.63;;
4089;SDS011;2059;48.538;12.146;2023-05-10T09:43:08;3.00;;;2.90;;
4089;SDS011;2059;48.538;12.146;2023-05-10T09:48:10;2.87;;;2.77;;
4089;SDS011;2059;48.538;12.146;2023-05-10T09:53:15;3.10;;;3.00;;
4089;SDS011;2059;48.538;12.146;2023-05-10T09:58:17;3.00;;;2.90;;
4089;SDS011;2059;48.538;12.146;2023-05-10T10:03:19;3.00;;;2.90;;
4089;SDS011;2059;48.538;12.146;2023-05-10T10:08:23;3.13;;;3.03;;
4089;SDS011;2059;48.538;12.146;2023-05-10T10:13:26;3.17;;;3.07;;
4089;SDS011;2059;48.538;12.146;2023-05-10T10:18:27;3.47;;;3.27;;
4089;SDS011;2059;48.538;12.146;2023-05-10T10:23:32;3.43;;;3.00;;
4089;SDS011;2059;48.538;12.146;2023-05-10T10:28:35;3.00;;;2.90;;
4089;SDS011;2059;48.538;12.146;2023-05-10T10:33:51;2.73;;;2.63;;
4089;SDS011;2059;48.538;12.146;2023-05-10T10:39:05;2.67;;;2.67;;
4089;SDS011;2059;48.538;12.146;2023-05-10T10:44:23;2.30;;;2.30;;
4089;SDS011;2059;48.538;12.146;2023-05-10T10:49:37;2.63;;;2.63;;
4089;SDS011;2059;48.538;12.146;2023-05-10T10:54:51;2.50;;;2.50;;
4089;SDS011;2059;48.538;12.146;2023-05-10T11:00:17;2.70;;;2.60;;
4089;SDS011;2059;48.538;12.146;2023-05-10T11:10:50;6.27;;;5.97;;
4089;SDS011;2059;48.538;12.146;2023-05-10T11:16:11;4.73;;;4.63;;
4089;SDS011;2059;48.538;12.146;2023-05-10T11:21:14;5.20;;;5.00;;
4089;SDS011;2059;48.538;12.146;2023-05-10T11:26:18;5.10;;;4.90;;
4089;SDS011;2059;48.538;12.146;2023-05-10T11:31:23;4.90;;;4.70;;
4089;SDS011;2059;48.538;12.146;2023-05-10T11:36:27;5.20;;;5.00;;
4089;SDS011;2059;48.538;12.146;2023-05-10T11:41:32;3.00;;;2.90;;
4089;SDS011;2059;48.538;12.146;2023-05-10T11:46:34;3.10;;;3.00;;
4089;SDS011;2059;48.538;12.146;2023-05-10T11:51:37;3.30;;;3.20;;
4089;SDS011;2059;48.538;12.146;2023-05-10T11:56:41;3.30;;;3.20;;
4089;SDS011;2059;48.538;12.146;2023-05-10T12:01:43;4.27;;;4.17;;
4089;SDS011;2059;48.538;12.146;2023-05-10T12:06:44;3.43;;;3.33;;
4089;SDS011;2059;48.538;12.146;2023-05-10T12:11:48;3.47;;;3.37;;
4089;SDS011;2059;48.538;12.146;2023-05-10T12:16:50;3.70;;;3.43;;
4089;SDS011;2059;48.538;12.146;2023-05-10T12:21:52;3.20;;;3.10;;
4089;SDS011;2059;48.538;12.146;2023-05-10T12:26:55;3.40;;;3.30;;
4089;SDS011;2059;48.538;12.146;2023-05-10T12:31:57;3.10;;;3.00;;
4089;SDS011;2059;48.538;12.146;2023-05-10T12:37:00;3.10;;;3.00;;
4089;SDS011;2059;48.538;12.146;2023-05-10T12:42:05;3.50;;;3.40;;
4089;SDS011;2059;48.538;12.146;2023-05-10T12:47:06;3.20;;;3.10;;
4089;SDS011;2059;48.538;12.146;2023-05-10T12:52:08;3.20;;;3.10;;
4089;SDS011;2059;48.538;12.146;2023-05-10T12:57:12;3.60;;;3.50;;
4089;SDS011;2059;48.538;12.146;2023-05-10T13:02:14;3.70;;;3.60;;
4089;SDS011;2059;48.538;12.146;2023-05-10T13:07:18;3.40;;;3.30;;
4089;SDS011;2059;48.538;12.146;2023-05-10T13:12:21;3.53;;;3.43;;
4089;SDS011;2059;48.538;12.146;2023-05-10T13:17:24;3.50;;;3.40;;
4089;SDS011;2059;48.538;12.146;2023-05-10T13:22:27;3.43;;;3.33;;
4089;SDS011;2059;48.538;12.146;2023-05-10T13:27:31;3.10;;;3.00;;
4089;SDS011;2059;48.538;12.146;2023-05-10T13:32:33;6.77;;;6.47;;
4089;SDS011;2059;48.538;12.146;2023-05-10T13:37:35;3.40;;;3.30;;
4089;SDS011;2059;48.538;12.146;2023-05-10T13:42:39;3.23;;;3.13;;
4089;SDS011;2059;48.538;12.146;2023-05-10T13:47:40;2.97;;;2.87;;
4089;SDS011;2059;48.538;12.146;2023-05-10T13:52:42;2.80;;;2.70;;
4089;SDS011;2059;48.538;12.146;2023-05-10T13:57:45;4.80;;;4.60;;
4089;SDS011;2059;48.538;12.146;2023-05-10T14:02:47;5.70;;;5.50;;
4089;SDS011;2059;48.538;12.146;2023-05-10T14:07:49;2.53;;;2.43;;
4089;SDS011;2059;48.538;12.146;2023-05-10T14:12:53;2.60;;;2.50;;
4089;SDS011;2059;48.538;12.146;2023-05-10T14:17:54;2.20;;;2.20;;
4089;SDS011;2059;48.538;12.146;2023-05-10T14:22:56;2.00;;;2.00;;
4089;SDS011;2059;48.538;12.146;2023-05-10T14:27:59;2.30;;;2.30;;
4089;SDS011;2059;48.538;12.146;2023-05-10T14:33:01;2.07;;;1.97;;
4089;SDS011;2059;48.538;12.146;2023-05-10T14:38:03;4.90;;;4.70;;
4089;SDS011;2059;48.538;12.146;2023-05-10T14:43:06;3.60;;;3.50;;
4089;SDS011;2059;48.538;12.146;2023-05-10T14:48:09;5.53;;;5.33;;
4089;SDS011;2059;48.538;12.146;2023-05-10T14:53:15;4.60;;;4.50;;
4089;SDS011;2059;48.538;12.146;2023-05-10T14:58:19;4.73;;;4.53;;
4089;SDS011;2059;48.538;12.146;2023-05-10T15:03:21;4.43;;;4.33;;
4089;SDS011;2059;48.538;12.146;2023-05-10T15:08:23;4.70;;;4.53;;
4089;SDS011;2059;48.538;12.146;2023-05-10T15:13:26;2.20;;;1.80;;
4089;SDS011;2059;48.538;12.146;2023-05-10T15:18:27;2.20;;;2.10;;
4089;SDS011;2059;48.538;12.146;2023-05-10T15:23:29;2.07;;;1.90;;
4089;SDS011;2059;48.538;12.146;2023-05-10T15:28:33;1.97;;;1.87;;
4089;SDS011;2059;48.538;12.146;2023-05-10T15:33:36;1.90;;;1.90;;
4089;SDS011;2059;48.538;12.146;2023-05-10T15:38:39;2.13;;;2.03;;
4089;SDS011;2059;48.538;12.146;2023-05-10T15:43:42;1.60;;;1.60;;
4089;SDS011;2059;48.538;12.146;2023-05-10T15:48:44;2.20;;;2.10;;
4089;SDS011;2059;48.538;12.146;2023-05-10T15:53:45;2.30;;;2.20;;
4089;SDS011;2059;48.538;12.146;2023-05-10T15:58:49;1.87;;;1.77;;
4089;SDS011;2059;48.538;12.146;2023-05-10T16:03:50;2.00;;;1.90;;
4089;SDS011;2059;48.538;12.146;2023-05-10T16:08:52;1.70;;;1.70;;
4089;SDS011;2059;48.538;12.146;2023-05-10T16:13:55;2.10;;;2.00;;
4089;SDS011;2059;48.538;12.146;2023-05-10T16:18:57;1.87;;;1.80;;
4089;SDS011;2059;48.538;12.146;2023-05-10T16:24:01;1.63;;;1.63;;
4089;SDS011;2059;48.538;12.146;2023-05-10T16:29:05;1.70;;;1.70;;
4089;SDS011;2059;48.538;12.146;2023-05-10T16:34:07;1.60;;;1.60;;
4089;SDS011;2059;48.538;12.146;2023-05-10T16:39:09;1.60;;;1.60;;
4089;SDS011;2059;48.538;12.146;2023-05-10T16:44:12;1.80;;;1.80;;
4089;SDS011;2059;48.538;12.146;2023-05-10T16:49:14;1.70;;;1.70;;
4089;SDS011;2059;48.538;12.146;2023-05-10T16:54:16;1.67;;;1.67;;
4089;SDS011;2059;48.538;12.146;2023-05-10T16:59:21;1.70;;;1.70;;
4089;SDS011;2059;48.538;12.146;2023-05-10T17:04:23;1.60;;;1.60;;
4089;SDS011;2059;48.538;12.146;2023-05-10T17:09:24;1.60;;;1.60;;
4089;SDS011;2059;48.538;12.146;2023-05-10T17:14:27;1.50;;;1.50;;
4089;SDS011;2059;48.538;12.146;2023-05-10T17:19:30;1.60;;;1.60;;
4089;SDS011;2059;48.538;12.146;2023-05-10T17:24:31;1.77;;;1.67;;
4089;SDS011;2059;48.538;12.146;2023-05-10T17:29:37;1.30;;;1.30;;
4089;SDS011;2059;48.538;12.146;2023-05-10T17:34:40;1.37;;;1.37;;
4089;SDS011;2059;48.538;12.146;2023-05-10T17:39:41;1.73;;;1.73;;
4089;SDS011;2059;48.538;12.146;2023-05-10T17:44:45;1.50;;;1.50;;
4089;SDS011;2059;48.538;12.146;2023-05-10T17:49:47;1.27;;;1.27;;
4089;SDS011;2059;48.538;12.146;2023-05-10T17:54:49;1.47;;;1.47;;
4089;SDS011;2059;48.538;12.146;2023-05-10T17:59:52;1.70;;;1.60;;
4089;SDS011;2059;48.538;12.146;2023-05-10T18:04:54;1.43;;;1.33;;
4089;SDS011;2059;48.538;12.146;2023-05-10T18:09:57;1.70;;;1.70;;
4089;SDS011;2059;48.538;12.146;2023-05-10T18:15:01;1.23;;;1.23;;
4089;SDS011;2059;48.538;12.146;2023-05-10T18:20:03;1.73;;;1.63;;
4089;SDS011;2059;48.538;12.146;2023-05-10T18:25:06;1.30;;;1.30;;
4089;SDS011;2059;48.538;12.146;2023-05-10T18:30:10;1.40;;;1.40;;
4089;SDS011;2059;48.538;12.146;2023-05-10T18:35:13;2.40;;;2.30;;
4089;SDS011;2059;48.538;12.146;2023-05-10T18:40:15;4.67;;;4.47;;
4089;SDS011;2059;48.538;12.146;2023-05-10T18:45:19;3.53;;;3.43;;
4089;SDS011;2059;48.538;12.146;2023-05-10T18:50:21;1.70;;;1.70;;
4089;SDS011;2059;48.538;12.146;2023-05-10T18:55:23;2.63;;;2.63;;
4089;SDS011;2059;48.538;12.146;2023-05-10T19:00:27;2.60;;;2.60;;
4089;SDS011;2059;48.538;12.146;2023-05-10T19:05:31;3.30;;;3.20;;
4089;SDS011;2059;48.538;12.146;2023-05-10T19:10:33;1.40;;;1.30;;
4089;SDS011;2059;48.538;12.146;2023-05-10T19:15:38;2.00;;;1.90;;
4089;SDS011;2059;48.538;12.146;2023-05-10T19:20:41;3.03;;;2.93;;
4089;SDS011;2059;48.538;12.146;2023-05-10T19:25:43;1.43;;;1.43;;
4089;SDS011;2059;48.538;12.146;2023-05-10T19:30:46;1.27;;;1.27;;
4089;SDS011;2059;48.538;12.146;2023-05-10T19:35:48;2.83;;;2.73;;
4089;SDS011;2059;48.538;12.146;2023-05-10T19:40:53;1.50;;;1.40;;
4089;SDS011;2059;48.538;12.146;2023-05-10T19:45:58;1.20;;;1.20;;
4089;SDS011;2059;48.538;12.146;2023-05-10T19:51:01;1.20;;;1.20;;
4089;SDS011;2059;48.538;12.146;2023-05-10T19:56:04;1.30;;;1.30;;
4089;SDS011;2059;48.538;12.146;2023-05-10T20:01:08;2.40;;;2.17;;
4089;SDS011;2059;48.538;12.146;2023-05-10T20:06:10;1.57;;;1.47;;
4089;SDS011;2059;48.538;12.146;2023-05-10T20:11:12;1.90;;;1.80;;
4089;SDS011;2059;48.538;12.146;2023-05-10T20:16:16;1.37;;;1.37;;
4089;SDS011;2059;48.538;12.146;2023-05-10T20:21:17;1.37;;;1.37;;
4089;SDS011;2059;48.538;12.146;2023-05-10T20:26:21;1.30;;;1.30;;
4089;SDS011;2059;48.538;12.146;2023-05-10T20:31:24;1.20;;;1.20;;
4089;SDS011;2059;48.538;12.146;2023-05-10T20:36:26;1.40;;;1.40;;
4089;SDS011;2059;48.538;12.146;2023-05-10T20:41:29;1.17;;;1.17;;
4089;SDS011;2059;48.538;12.146;2023-05-10T20:46:32;1.20;;;1.20;;
4089;SDS011;2059;48.538;12.146;2023-05-10T20:51:34;1.50;;;1.50;;
4089;SDS011;2059;48.538;12.146;2023-05-10T20:56:37;1.90;;;1.43;;
4089;SDS011;2059;48.538;12.146;2023-05-10T21:01:41;1.10;;;1.10;;
4089;SDS011;2059;48.538;12.146;2023-05-10T21:06:44;1.00;;;1.00;;
4089;SDS011;2059;48.538;12.146;2023-05-10T21:11:46;1.30;;;1.30;;
4089;SDS011;2059;48.538;12.146;2023-05-10T21:16:49;1.20;;;1.10;;
4089;SDS011;2059;48.538;12.146;2023-05-10T21:21:52;1.27;;;1.27;;
4089;SDS011;2059;48.538;12.146;2023-05-10T21:26:55;3.93;;;3.83;;
4089;SDS011;2059;48.538;12.146;2023-05-10T21:31:58;3.80;;;3.70;;
4089;SDS011;2059;48.538;12.146;2023-05-10T21:37:00;2.67;;;2.60;;
4089;SDS011;2059;48.538;12.146;2023-05-10T21:42:01;3.50;;;3.40;;
4089;SDS011;2059;48.538;12.146;2023-05-10T21:47:05;3.53;;;3.43;;
4089;SDS011;2059;48.538;12.146;2023-05-10T21:52:07;3.50;;;3.40;;
4089;SDS011;2059;48.538;12.146;2023-05-10T21:57:09;4.53;;;4.43;;
4089;SDS011;2059;48.538;12.146;2023-05-10T22:02:12;2.50;;;2.50;;
4089;SDS011;2059;48.538;12.146;2023-05-10T22:07:14;3.03;;;2.83;;
4089;SDS011;2059;48.538;12.146;2023-05-10T22:12:16;2.70;;;2.60;;
4089;SDS011;2059;48.538;12.146;2023-05-10T22:17:19;2.70;;;2.60;;
4089;SDS011;2059;48.538;12.146;2023-05-10T22:22:21;3.90;;;3.80;;
4089;SDS011;2059;48.538;12.146;2023-05-10T22:27:23;3.60;;;3.50;;
4089;SDS011;2059;48.538;12.146;2023-05-10T22:32:26;3.30;;;3.20;;
4089;SDS011;2059;48.538;12.146;2023-05-10T22:37:30;3.30;;;3.20;;
4089;SDS011;2059;48.538;12.146;2023-05-10T22:42:32;2.30;;;2.30;;
4089;SDS011;2059;48.538;12.146;2023-05-10T22:47:35;2.33;;;2.33;;
4089;SDS011;2059;48.538;12.146;2023-05-10T22:52:36;2.30;;;2.20;;
4089;SDS011;2059;48.538;12.146;2023-05-10T22:57:38;2.07;;;2.07;;
4089;SDS011;2059;48.538;12.146;2023-05-10T23:02:44;2.00;;;2.00;;
4089;SDS011;2059;48.538;12.146;2023-05-10T23:07:46;2.20;;;2.13;;
4089;SDS011;2059;48.538;12.146;2023-05-10T23:12:52;2.30;;;2.20;;
4089;SDS011;2059;48.538;12.146;2023-05-10T23:17:56;2.37;;;2.27;;
4089;SDS011;2059;48.538;12.146;2023-05-10T23:22:59;2.17;;;2.17;;
4089;SDS011;2059;48.538;12.146;2023-05-10T23:28:01;2.00;;;2.00;;
4089;SDS011;2059;48.538;12.146;2023-05-10T23:33:05;2.20;;;2.20;;
4089;SDS011;2059;48.538;12.146;2023-05-10T23:38:07;2.40;;;2.40;;
4089;SDS011;2059;48.538;12.146;2023-05-10T23:43:09;2.57;;;2.47;;
4089;SDS011;2059;48.538;12.146;2023-05-10T23:48:14;2.30;;;2.30;;
4089;SDS011;2059;48.538;12.146;2023-05-10T23:53:16;2.00;;;2.00;;
4089;SDS011;2059;48.538;12.146;2023-05-10T23:58:18;2.30;;;2.30;;
